sensor_id;sensor_type;location;lat;lon;timestamp;temperature;humidity
20400;DHT22;10359;53.596;22.520;2023-05-02T00:02:39;5.20;99.90
20400;DHT22;10359;53.596;22.520;2023-05-02T00:05:33;5.20;99.90
20400;DHT22;10359;53.596;22.520;2023-05-02T00:08:23;5.20;99.90
20400;DHT22;10359;53.596;22.520;2023-05-02T00:11:12;5.20;99.90
20400;DHT22;10359;53.596;22.520;2023-05-02T00:14:04;5.20;99.90
20400;DHT22;10359;53.596;22.520;2023-05-02T00:16:54;5.20;99.90
20400;DHT22;10359;53.596;22.520;2023-05-02T00:19:44;5.20;99.90
20400;DHT22;10359;53.596;22.520;2023-05-02T00:22:35;5.20;99.90
20400;DHT22;10359;53.596;22.520;2023-05-02T00:25:24;5.20;99.90
20400;DHT22;10359;53.596;22.520;2023-05-02T00:28:14;5.30;99.90
20400;DHT22;10359;53.596;22.520;2023-05-02T00:31:04;5.30;99.90
20400;DHT22;10359;53.596;22.520;2023-05-02T00:33:55;5.20;99.90
20400;DHT22;10359;53.596;22.520;2023-05-02T00:36:45;5.30;99.90
20400;DHT22;10359;53.596;22.520;2023-05-02T00:39:37;5.20;99.90
20400;DHT22;10359;53.596;22.520;2023-05-02T00:42:31;5.20;99.90
20400;DHT22;10359;53.596;22.520;2023-05-02T00:45:49;5.20;99.90
20400;DHT22;10359;53.596;22.520;2023-05-02T00:48:39;5.20;99.90
20400;DHT22;10359;53.596;22.520;2023-05-02T00:51:32;5.10;99.90
20400;DHT22;10359;53.596;22.520;2023-05-02T00:54:24;5.10;99.90
20400;DHT22;10359;53.596;22.520;2023-05-02T00:57:15;5.00;99.90
20400;DHT22;10359;53.596;22.520;2023-05-02T01:00:07;5.00;99.90
20400;DHT22;10359;53.596;22.520;2023-05-02T01:03:03;5.10;99.90
20400;DHT22;10359;53.596;22.520;2023-05-02T01:06:02;5.10;99.90
20400;DHT22;10359;53.596;22.520;2023-05-02T01:09:02;5.20;99.90
20400;DHT22;10359;53.596;22.520;2023-05-02T01:12:00;5.20;99.90
20400;DHT22;10359;53.596;22.520;2023-05-02T01:14:54;5.30;99.90
20400;DHT22;10359;53.596;22.520;2023-05-02T01:17:45;5.30;99.90
20400;DHT22;10359;53.596;22.520;2023-05-02T01:20:37;5.30;99.90
20400;DHT22;10359;53.596;22.520;2023-05-02T01:23:34;5.40;99.90
20400;DHT22;10359;53.596;22.520;2023-05-02T01:26:33;5.50;99.90
20400;DHT22;10359;53.596;22.520;2023-05-02T01:29:27;5.50;99.90
20400;DHT22;10359;53.596;22.520;2023-05-02T01:32:21;5.50;99.90
20400;DHT22;10359;53.596;22.520;2023-05-02T01:35:14;5.50;99.90
20400;DHT22;10359;53.596;22.520;2023-05-02T01:38:06;5.50;99.90
20400;DHT22;10359;53.596;22.520;2023-05-02T01:40:57;5.50;99.90
20400;DHT22;10359;53.596;22.520;2023-05-02T01:43:50;5.50;99.90
20400;DHT22;10359;53.596;22.520;2023-05-02T01:46:42;5.50;99.90
20400;DHT22;10359;53.596;22.520;2023-05-02T01:49:33;5.50;99.90
20400;DHT22;10359;53.596;22.520;2023-05-02T01:52:24;5.50;99.90
20400;DHT22;10359;53.596;22.520;2023-05-02T01:55:15;5.50;99.90
20400;DHT22;10359;53.596;22.520;2023-05-02T01:58:06;5.40;99.90
20400;DHT22;10359;53.596;22.520;2023-05-02T02:00:58;5.40;99.90
20400;DHT22;10359;53.596;22.520;2023-05-02T02:03:49;5.40;99.90
20400;DHT22;10359;53.596;22.520;2023-05-02T02:06:41;5.40;99.90
20400;DHT22;10359;53.596;22.520;2023-05-02T02:09:33;5.50;99.90
20400;DHT22;10359;53.596;22.520;2023-05-02T02:12:27;5.40;99.90
20400;DHT22;10359;53.596;22.520;2023-05-02T02:15:20;5.40;99.90
20400;DHT22;10359;53.596;22.520;2023-05-02T02:18:20;5.40;99.90
20400;DHT22;10359;53.596;22.520;2023-05-02T02:21:17;5.40;99.90
20400;DHT22;10359;53.596;22.520;2023-05-02T02:24:08;5.40;99.90
20400;DHT22;10359;53.596;22.520;2023-05-02T02:26:58;5.40;99.90
20400;DHT22;10359;53.596;22.520;2023-05-02T02:29:48;5.40;99.90
20400;DHT22;10359;53.596;22.520;2023-05-02T02:32:37;5.40;99.90
20400;DHT22;10359;53.596;22.520;2023-05-02T02:35:32;5.40;99.90
20400;DHT22;10359;53.596;22.520;2023-05-02T02:38:30;5.50;99.90
20400;DHT22;10359;53.596;22.520;2023-05-02T02:41:27;5.50;99.90
20400;DHT22;10359;53.596;22.520;2023-05-02T02:44:33;5.70;99.90
20400;DHT22;10359;53.596;22.520;2023-05-02T02:47:41;5.70;99.90
20400;DHT22;10359;53.596;22.520;2023-05-02T02:50:42;5.70;99.90
20400;DHT22;10359;53.596;22.520;2023-05-02T02:53:46;5.70;99.90
20400;DHT22;10359;53.596;22.520;2023-05-02T02:56:41;5.90;99.90
20400;DHT22;10359;53.596;22.520;2023-05-02T02:59:37;6.00;99.90
20400;DHT22;10359;53.596;22.520;2023-05-02T03:02:31;6.00;99.90
20400;DHT22;10359;53.596;22.520;2023-05-02T03:05:22;6.00;99.90
20400;DHT22;10359;53.596;22.520;2023-05-02T03:08:12;6.10;99.90
20400;DHT22;10359;53.596;22.520;2023-05-02T03:11:03;6.20;99.90
20400;DHT22;10359;53.596;22.520;2023-05-02T03:13:52;6.30;99.90
20400;DHT22;10359;53.596;22.520;2023-05-02T03:16:42;6.50;99.90
20400;DHT22;10359;53.596;22.520;2023-05-02T03:19:32;6.50;99.90
20400;DHT22;10359;53.596;22.520;2023-05-02T03:22:21;6.60;99.90
20400;DHT22;10359;53.596;22.520;2023-05-02T03:25:11;6.70;99.90
20400;DHT22;10359;53.596;22.520;2023-05-02T03:28:02;6.80;99.90
20400;DHT22;10359;53.596;22.520;2023-05-02T03:30:52;6.80;99.90
20400;DHT22;10359;53.596;22.520;2023-05-02T03:33:42;6.90;99.90
20400;DHT22;10359;53.596;22.520;2023-05-02T03:36:31;6.90;99.90
20400;DHT22;10359;53.596;22.520;2023-05-02T03:39:26;7.00;99.90
20400;DHT22;10359;53.596;22.520;2023-05-02T03:42:23;7.10;99.90
20400;DHT22;10359;53.596;22.520;2023-05-02T03:45:15;7.10;99.90
20400;DHT22;10359;53.596;22.520;2023-05-02T03:48:05;7.20;99.90
20400;DHT22;10359;53.596;22.520;2023-05-02T03:50:55;7.20;99.90
20400;DHT22;10359;53.596;22.520;2023-05-02T03:53:46;7.40;99.90
20400;DHT22;10359;53.596;22.520;2023-05-02T03:56:36;7.40;99.90
20400;DHT22;10359;53.596;22.520;2023-05-02T03:59:34;7.40;99.90
20400;DHT22;10359;53.596;22.520;2023-05-02T04:02:31;7.60;99.90
20400;DHT22;10359;53.596;22.520;2023-05-02T04:05:26;7.70;99.90
20400;DHT22;10359;53.596;22.520;2023-05-02T04:08:18;7.80;99.90
20400;DHT22;10359;53.596;22.520;2023-05-02T04:11:11;7.90;99.90
20400;DHT22;10359;53.596;22.520;2023-05-02T04:14:01;8.00;99.90
20400;DHT22;10359;53.596;22.520;2023-05-02T04:16:51;8.20;99.90
20400;DHT22;10359;53.596;22.520;2023-05-02T04:19:43;8.30;99.90
20400;DHT22;10359;53.596;22.520;2023-05-02T04:22:37;8.40;99.90
20400;DHT22;10359;53.596;22.520;2023-05-02T04:25:28;8.50;99.90
20400;DHT22;10359;53.596;22.520;2023-05-02T04:28:19;8.60;99.90
20400;DHT22;10359;53.596;22.520;2023-05-02T04:31:10;8.70;99.90
20400;DHT22;10359;53.596;22.520;2023-05-02T04:34:00;8.80;99.90
20400;DHT22;10359;53.596;22.520;2023-05-02T04:36:53;8.90;99.90
20400;DHT22;10359;53.596;22.520;2023-05-02T04:39:42;8.90;99.90
20400;DHT22;10359;53.596;22.520;2023-05-02T04:42:32;8.90;99.90
20400;DHT22;10359;53.596;22.520;2023-05-02T04:45:30;8.90;99.90
20400;DHT22;10359;53.596;22.520;2023-05-02T04:48:22;9.10;99.90
20400;DHT22;10359;53.596;22.520;2023-05-02T04:51:12;9.10;99.90
20400;DHT22;10359;53.596;22.520;2023-05-02T04:54:06;9.20;99.90
20400;DHT22;10359;53.596;22.520;2023-05-02T04:56:55;9.30;99.90
20400;DHT22;10359;53.596;22.520;2023-05-02T04:59:46;9.40;99.90
20400;DHT22;10359;53.596;22.520;2023-05-02T05:02:38;9.50;99.90
20400;DHT22;10359;53.596;22.520;2023-05-02T05:05:27;9.60;99.90
20400;DHT22;10359;53.596;22.520;2023-05-02T05:08:17;9.80;99.90
20400;DHT22;10359;53.596;22.520;2023-05-02T05:11:11;9.80;99.90
20400;DHT22;10359;53.596;22.520;2023-05-02T05:14:01;9.90;99.90
20400;DHT22;10359;53.596;22.520;2023-05-02T05:16:51;10.10;99.90
20400;DHT22;10359;53.596;22.520;2023-05-02T05:19:41;10.10;99.90
20400;DHT22;10359;53.596;22.520;2023-05-02T05:22:31;10.30;99.90
20400;DHT22;10359;53.596;22.520;2023-05-02T05:25:20;10.40;99.90
20400;DHT22;10359;53.596;22.520;2023-05-02T05:28:12;10.60;99.90
20400;DHT22;10359;53.596;22.520;2023-05-02T05:31:04;10.70;99.90
20400;DHT22;10359;53.596;22.520;2023-05-02T05:33:55;11.00;99.90
20400;DHT22;10359;53.596;22.520;2023-05-02T05:36:45;11.20;99.90
20400;DHT22;10359;53.596;22.520;2023-05-02T05:39:34;11.40;99.90
20400;DHT22;10359;53.596;22.520;2023-05-02T05:42:24;11.60;99.90
20400;DHT22;10359;53.596;22.520;2023-05-02T05:45:16;12.00;99.90
20400;DHT22;10359;53.596;22.520;2023-05-02T05:48:06;12.20;99.90
20400;DHT22;10359;53.596;22.520;2023-05-02T05:58:36;12.40;99.90
20400;DHT22;10359;53.596;22.520;2023-05-02T06:01:28;12.50;99.90
20400;DHT22;10359;53.596;22.520;2023-05-02T06:04:19;12.60;99.90
20400;DHT22;10359;53.596;22.520;2023-05-02T06:07:09;12.40;99.90
20400;DHT22;10359;53.596;22.520;2023-05-02T06:09:58;12.50;99.90
20400;DHT22;10359;53.596;22.520;2023-05-02T06:12:49;12.30;99.90
20400;DHT22;10359;53.596;22.520;2023-05-02T06:15:39;12.40;99.90
20400;DHT22;10359;53.596;22.520;2023-05-02T06:18:30;12.40;99.90
20400;DHT22;10359;53.596;22.520;2023-05-02T06:21:20;12.40;99.90
20400;DHT22;10359;53.596;22.520;2023-05-02T06:24:10;12.40;99.90
20400;DHT22;10359;53.596;22.520;2023-05-02T06:26:59;12.40;99.90
20400;DHT22;10359;53.596;22.520;2023-05-02T06:30:15;12.30;99.90
20400;DHT22;10359;53.596;22.520;2023-05-02T06:33:09;12.30;99.90
20400;DHT22;10359;53.596;22.520;2023-05-02T06:36:07;12.40;99.90
20400;DHT22;10359;53.596;22.520;2023-05-02T06:38:57;12.40;99.90
20400;DHT22;10359;53.596;22.520;2023-05-02T06:41:50;12.30;99.90
20400;DHT22;10359;53.596;22.520;2023-05-02T06:44:40;12.40;99.90
20400;DHT22;10359;53.596;22.520;2023-05-02T06:47:33;12.40;99.90
20400;DHT22;10359;53.596;22.520;2023-05-02T06:50:51;12.50;99.90
20400;DHT22;10359;53.596;22.520;2023-05-02T06:53:46;13.00;99.90
20400;DHT22;10359;53.596;22.520;2023-05-02T06:56:49;13.50;99.90
20400;DHT22;10359;53.596;22.520;2023-05-02T06:59:42;13.90;99.90
20400;DHT22;10359;53.596;22.520;2023-05-02T07:02:44;14.40;99.90
20400;DHT22;10359;53.596;22.520;2023-05-02T07:05:49;14.80;99.90
20400;DHT22;10359;53.596;22.520;2023-05-02T07:09:12;15.10;99.90
20400;DHT22;10359;53.596;22.520;2023-05-02T07:12:02;15.50;99.90
20400;DHT22;10359;53.596;22.520;2023-05-02T07:14:57;16.20;99.90
20400;DHT22;10359;53.596;22.520;2023-05-02T07:18:06;16.60;99.90
20400;DHT22;10359;53.596;22.520;2023-05-02T07:21:00;16.80;99.90
20400;DHT22;10359;53.596;22.520;2023-05-02T07:23:51;16.70;99.90
20400;DHT22;10359;53.596;22.520;2023-05-02T07:26:48;17.00;99.90
20400;DHT22;10359;53.596;22.520;2023-05-02T07:30:00;17.40;99.90
20400;DHT22;10359;53.596;22.520;2023-05-02T07:33:54;17.50;99.90
20400;DHT22;10359;53.596;22.520;2023-05-02T07:37:02;17.60;99.90
20400;DHT22;10359;53.596;22.520;2023-05-02T07:40:35;17.30;99.90
20400;DHT22;10359;53.596;22.520;2023-05-02T07:43:28;17.40;99.90
20400;DHT22;10359;53.596;22.520;2023-05-02T07:46:18;17.10;99.90
20400;DHT22;10359;53.596;22.520;2023-05-02T07:49:08;17.10;99.90
20400;DHT22;10359;53.596;22.520;2023-05-02T07:56:41;17.50;99.90
20400;DHT22;10359;53.596;22.520;2023-05-02T07:59:57;17.60;99.90
20400;DHT22;10359;53.596;22.520;2023-05-02T08:05:36;17.50;99.90
20400;DHT22;10359;53.596;22.520;2023-05-02T08:17:24;18.10;99.90
20400;DHT22;10359;53.596;22.520;2023-05-02T08:20:37;18.50;99.90
20400;DHT22;10359;53.596;22.520;2023-05-02T08:40:08;20.60;99.90
20400;DHT22;10359;53.596;22.520;2023-05-02T08:43:32;20.60;99.90
20400;DHT22;10359;53.596;22.520;2023-05-02T08:47:09;20.90;99.90
20400;DHT22;10359;53.596;22.520;2023-05-02T08:50:39;21.00;99.90
20400;DHT22;10359;53.596;22.520;2023-05-02T08:53:44;21.50;99.90
20400;DHT22;10359;53.596;22.520;2023-05-02T09:04:35;22.10;99.90
20400;DHT22;10359;53.596;22.520;2023-05-02T09:07:57;21.70;99.90
20400;DHT22;10359;53.596;22.520;2023-05-02T09:10:47;21.10;99.90
20400;DHT22;10359;53.596;22.520;2023-05-02T09:13:38;21.10;99.90
20400;DHT22;10359;53.596;22.520;2023-05-02T09:16:56;20.90;99.90
20400;DHT22;10359;53.596;22.520;2023-05-02T09:20:25;20.70;99.90
20400;DHT22;10359;53.596;22.520;2023-05-02T09:23:16;20.80;99.90
20400;DHT22;10359;53.596;22.520;2023-05-02T09:27:07;20.60;99.90
20400;DHT22;10359;53.596;22.520;2023-05-02T09:34:36;20.90;99.90
20400;DHT22;10359;53.596;22.520;2023-05-02T09:37:56;21.10;99.90
20400;DHT22;10359;53.596;22.520;2023-05-02T09:41:03;21.00;99.90
20400;DHT22;10359;53.596;22.520;2023-05-02T09:44:17;21.30;99.90
20400;DHT22;10359;53.596;22.520;2023-05-02T09:47:36;21.40;99.90
20400;DHT22;10359;53.596;22.520;2023-05-02T09:55:36;22.10;99.90
20400;DHT22;10359;53.596;22.520;2023-05-02T09:59:13;22.20;99.90
20400;DHT22;10359;53.596;22.520;2023-05-02T10:02:27;22.50;99.90
20400;DHT22;10359;53.596;22.520;2023-05-02T10:10:01;23.00;99.90
20400;DHT22;10359;53.596;22.520;2023-05-02T10:13:08;22.30;99.90
20400;DHT22;10359;53.596;22.520;2023-05-02T10:15:59;22.30;99.90
20400;DHT22;10359;53.596;22.520;2023-05-02T10:19:08;22.50;99.90
20400;DHT22;10359;53.596;22.520;2023-05-02T10:22:31;22.70;99.90
20400;DHT22;10359;53.596;22.520;2023-05-02T10:25:23;22.10;99.90
20400;DHT22;10359;53.596;22.520;2023-05-02T10:28:35;21.50;99.90
20400;DHT22;10359;53.596;22.520;2023-05-02T10:31:26;21.40;99.90
20400;DHT22;10359;53.596;22.520;2023-05-02T10:34:34;20.70;99.90
20400;DHT22;10359;53.596;22.520;2023-05-02T10:37:52;20.40;99.90
20400;DHT22;10359;53.596;22.520;2023-05-02T10:40:54;19.90;99.90
20400;DHT22;10359;53.596;22.520;2023-05-02T10:44:11;20.00;99.90
20400;DHT22;10359;53.596;22.520;2023-05-02T10:47:19;20.10;99.90
20400;DHT22;10359;53.596;22.520;2023-05-02T10:50:09;19.90;99.90
20400;DHT22;10359;53.596;22.520;2023-05-02T11:01:34;19.40;99.90
20400;DHT22;10359;53.596;22.520;2023-05-02T11:09:30;19.10;99.90
20400;DHT22;10359;53.596;22.520;2023-05-02T11:12:43;18.60;99.90
20400;DHT22;10359;53.596;22.520;2023-05-02T11:15:55;18.10;99.90
20400;DHT22;10359;53.596;22.520;2023-05-02T11:18:59;18.20;99.90
20400;DHT22;10359;53.596;22.520;2023-05-02T11:22:30;18.40;99.90
20400;DHT22;10359;53.596;22.520;2023-05-02T11:25:41;18.10;99.90
20400;DHT22;10359;53.596;22.520;2023-05-02T11:28:43;17.80;99.90
20400;DHT22;10359;53.596;22.520;2023-05-02T11:34:51;17.50;99.90
20400;DHT22;10359;53.596;22.520;2023-05-02T11:37:42;17.10;99.90
20400;DHT22;10359;53.596;22.520;2023-05-02T11:40:56;16.80;99.90
20400;DHT22;10359;53.596;22.520;2023-05-02T11:44:18;16.00;99.90
20400;DHT22;10359;53.596;22.520;2023-05-02T11:48:05;15.70;99.90
20400;DHT22;10359;53.596;22.520;2023-05-02T11:51:22;15.40;99.90
20400;DHT22;10359;53.596;22.520;2023-05-02T11:54:22;15.30;99.90
20400;DHT22;10359;53.596;22.520;2023-05-02T12:01:27;15.30;99.90
20400;DHT22;10359;53.596;22.520;2023-05-02T12:04:24;15.30;99.90
20400;DHT22;10359;53.596;22.520;2023-05-02T12:07:16;15.10;99.90
20400;DHT22;10359;53.596;22.520;2023-05-02T12:10:07;15.00;99.90
20400;DHT22;10359;53.596;22.520;2023-05-02T12:13:03;15.10;99.90
20400;DHT22;10359;53.596;22.520;2023-05-02T12:15:55;15.00;99.90
20400;DHT22;10359;53.596;22.520;2023-05-02T12:18:46;15.10;99.90
20400;DHT22;10359;53.596;22.520;2023-05-02T12:21:36;15.10;99.90
20400;DHT22;10359;53.596;22.520;2023-05-02T12:24:27;15.20;99.90
20400;DHT22;10359;53.596;22.520;2023-05-02T12:27:17;15.40;99.90
20400;DHT22;10359;53.596;22.520;2023-05-02T12:30:07;15.30;99.90
20400;DHT22;10359;53.596;22.520;2023-05-02T12:32:58;15.30;99.90
20400;DHT22;10359;53.596;22.520;2023-05-02T12:35:54;15.10;99.90
20400;DHT22;10359;53.596;22.520;2023-05-02T12:38:55;15.10;99.90
20400;DHT22;10359;53.596;22.520;2023-05-02T12:41:48;15.00;99.90
20400;DHT22;10359;53.596;22.520;2023-05-02T12:44:44;15.20;99.90
20400;DHT22;10359;53.596;22.520;2023-05-02T12:48:21;15.10;99.90
20400;DHT22;10359;53.596;22.520;2023-05-02T12:51:21;14.90;99.90
20400;DHT22;10359;53.596;22.520;2023-05-02T12:54:20;15.20;99.90
20400;DHT22;10359;53.596;22.520;2023-05-02T12:57:22;15.20;99.90
20400;DHT22;10359;53.596;22.520;2023-05-02T13:00:13;15.20;99.90
20400;DHT22;10359;53.596;22.520;2023-05-02T13:03:04;15.10;99.90
20400;DHT22;10359;53.596;22.520;2023-05-02T13:05:55;15.10;99.90
20400;DHT22;10359;53.596;22.520;2023-05-02T13:08:44;15.10;99.90
20400;DHT22;10359;53.596;22.520;2023-05-02T13:11:34;15.30;99.90
20400;DHT22;10359;53.596;22.520;2023-05-02T13:14:25;15.40;99.90
20400;DHT22;10359;53.596;22.520;2023-05-02T13:17:15;16.00;99.90
20400;DHT22;10359;53.596;22.520;2023-05-02T13:20:06;16.40;99.90
20400;DHT22;10359;53.596;22.520;2023-05-02T13:22:57;17.40;99.90
20400;DHT22;10359;53.596;22.520;2023-05-02T13:26:14;18.80;99.90
20400;DHT22;10359;53.596;22.520;2023-05-02T13:29:08;19.00;99.90
20400;DHT22;10359;53.596;22.520;2023-05-02T13:32:01;19.10;99.90
20400;DHT22;10359;53.596;22.520;2023-05-02T13:34:52;18.90;99.90
20400;DHT22;10359;53.596;22.520;2023-05-02T13:37:43;18.90;99.90
20400;DHT22;10359;53.596;22.520;2023-05-02T13:40:37;19.00;99.90
20400;DHT22;10359;53.596;22.520;2023-05-02T13:43:28;19.20;99.90
20400;DHT22;10359;53.596;22.520;2023-05-02T13:49:44;18.40;99.90
20400;DHT22;10359;53.596;22.520;2023-05-02T13:52:35;18.80;99.90
20400;DHT22;10359;53.596;22.520;2023-05-02T13:55:29;18.80;99.90
20400;DHT22;10359;53.596;22.520;2023-05-02T13:58:27;19.40;99.90
20400;DHT22;10359;53.596;22.520;2023-05-02T14:01:19;19.70;99.90
20400;DHT22;10359;53.596;22.520;2023-05-02T14:04:12;20.00;99.90
20400;DHT22;10359;53.596;22.520;2023-05-02T14:07:04;19.50;99.90
20400;DHT22;10359;53.596;22.520;2023-05-02T14:10:11;18.80;99.90
20400;DHT22;10359;53.596;22.520;2023-05-02T14:13:02;19.00;99.90
20400;DHT22;10359;53.596;22.520;2023-05-02T14:16:31;20.40;99.90
20400;DHT22;10359;53.596;22.520;2023-05-02T14:20:55;20.30;99.90
20400;DHT22;10359;53.596;22.520;2023-05-02T14:23:50;20.00;99.90
20400;DHT22;10359;53.596;22.520;2023-05-02T14:26:40;20.00;99.90
20400;DHT22;10359;53.596;22.520;2023-05-02T14:29:36;19.90;99.90
20400;DHT22;10359;53.596;22.520;2023-05-02T14:32:31;19.80;99.90
20400;DHT22;10359;53.596;22.520;2023-05-02T14:35:23;19.50;99.90
20400;DHT22;10359;53.596;22.520;2023-05-02T14:38:19;19.30;99.90
20400;DHT22;10359;53.596;22.520;2023-05-02T14:41:14;19.20;99.90
20400;DHT22;10359;53.596;22.520;2023-05-02T14:44:04;19.10;99.90
20400;DHT22;10359;53.596;22.520;2023-05-02T14:46:57;18.80;99.90
20400;DHT22;10359;53.596;22.520;2023-05-02T14:49:52;19.10;99.90
20400;DHT22;10359;53.596;22.520;2023-05-02T14:52:47;18.90;99.90
20400;DHT22;10359;53.596;22.520;2023-05-02T14:55:38;18.90;99.90
20400;DHT22;10359;53.596;22.520;2023-05-02T14:58:30;18.80;99.90
20400;DHT22;10359;53.596;22.520;2023-05-02T15:01:23;18.50;99.90
20400;DHT22;10359;53.596;22.520;2023-05-02T15:04:29;18.40;99.90
20400;DHT22;10359;53.596;22.520;2023-05-02T15:07:32;18.40;99.90
20400;DHT22;10359;53.596;22.520;2023-05-02T15:10:40;18.10;99.90
20400;DHT22;10359;53.596;22.520;2023-05-02T15:13:47;18.10;99.90
20400;DHT22;10359;53.596;22.520;2023-05-02T15:16:45;18.10;99.90
20400;DHT22;10359;53.596;22.520;2023-05-02T15:19:39;18.50;99.90
20400;DHT22;10359;53.596;22.520;2023-05-02T15:22:30;18.40;99.90
20400;DHT22;10359;53.596;22.520;2023-05-02T15:25:20;18.70;99.90
20400;DHT22;10359;53.596;22.520;2023-05-02T15:28:15;18.50;99.90
20400;DHT22;10359;53.596;22.520;2023-05-02T15:31:08;18.30;99.90
20400;DHT22;10359;53.596;22.520;2023-05-02T15:34:02;18.20;99.90
20400;DHT22;10359;53.596;22.520;2023-05-02T15:36:53;18.30;99.90
20400;DHT22;10359;53.596;22.520;2023-05-02T15:39:44;18.40;99.90
20400;DHT22;10359;53.596;22.520;2023-05-02T15:42:34;18.60;99.90
20400;DHT22;10359;53.596;22.520;2023-05-02T15:45:25;18.90;99.90
20400;DHT22;10359;53.596;22.520;2023-05-02T15:48:16;18.50;99.90
20400;DHT22;10359;53.596;22.520;2023-05-02T15:51:08;18.60;99.90
20400;DHT22;10359;53.596;22.520;2023-05-02T15:53:58;18.40;99.90
20400;DHT22;10359;53.596;22.520;2023-05-02T15:56:49;18.40;99.90
20400;DHT22;10359;53.596;22.520;2023-05-02T15:59:43;18.50;99.90
20400;DHT22;10359;53.596;22.520;2023-05-02T16:02:33;18.70;99.90
20400;DHT22;10359;53.596;22.520;2023-05-02T16:05:26;18.60;99.90
20400;DHT22;10359;53.596;22.520;2023-05-02T16:08:18;18.40;99.90
20400;DHT22;10359;53.596;22.520;2023-05-02T16:11:10;18.30;99.90
20400;DHT22;10359;53.596;22.520;2023-05-02T16:14:01;18.20;99.90
20400;DHT22;10359;53.596;22.520;2023-05-02T16:16:53;18.20;99.90
20400;DHT22;10359;53.596;22.520;2023-05-02T16:19:50;18.00;99.90
20400;DHT22;10359;53.596;22.520;2023-05-02T16:22:46;17.80;99.90
20400;DHT22;10359;53.596;22.520;2023-05-02T16:25:39;17.70;99.90
20400;DHT22;10359;53.596;22.520;2023-05-02T16:28:40;17.40;99.90
20400;DHT22;10359;53.596;22.520;2023-05-02T16:31:32;17.30;99.90
20400;DHT22;10359;53.596;22.520;2023-05-02T16:34:22;17.30;99.90
20400;DHT22;10359;53.596;22.520;2023-05-02T16:37:12;17.10;99.90
20400;DHT22;10359;53.596;22.520;2023-05-02T16:40:05;17.10;99.90
20400;DHT22;10359;53.596;22.520;2023-05-02T16:42:55;17.00;99.90
20400;DHT22;10359;53.596;22.520;2023-05-02T16:45:44;16.90;99.90
20400;DHT22;10359;53.596;22.520;2023-05-02T16:48:34;17.00;99.90
20400;DHT22;10359;53.596;22.520;2023-05-02T16:51:24;16.90;99.90
20400;DHT22;10359;53.596;22.520;2023-05-02T16:54:13;16.80;99.90
20400;DHT22;10359;53.596;22.520;2023-05-02T16:57:05;16.60;99.90
20400;DHT22;10359;53.596;22.520;2023-05-02T17:00:24;16.50;99.90
20400;DHT22;10359;53.596;22.520;2023-05-02T17:03:21;16.00;99.90
20400;DHT22;10359;53.596;22.520;2023-05-02T17:06:11;15.70;99.90
20400;DHT22;10359;53.596;22.520;2023-05-02T17:09:03;15.40;99.90
20400;DHT22;10359;53.596;22.520;2023-05-02T17:11:54;15.20;99.90
20400;DHT22;10359;53.596;22.520;2023-05-02T17:14:47;15.00;99.90
20400;DHT22;10359;53.596;22.520;2023-05-02T17:17:36;14.60;99.90
20400;DHT22;10359;53.596;22.520;2023-05-02T17:20:26;14.50;99.90
20400;DHT22;10359;53.596;22.520;2023-05-02T17:23:15;14.20;99.90
20400;DHT22;10359;53.596;22.520;2023-05-02T17:26:06;14.10;99.90
20400;DHT22;10359;53.596;22.520;2023-05-02T17:29:01;13.90;99.90
20400;DHT22;10359;53.596;22.520;2023-05-02T17:31:53;13.80;99.90
20400;DHT22;10359;53.596;22.520;2023-05-02T17:34:44;13.70;99.90
20400;DHT22;10359;53.596;22.520;2023-05-02T17:37:48;13.50;99.90
20400;DHT22;10359;53.596;22.520;2023-05-02T17:40:39;13.30;99.90
20400;DHT22;10359;53.596;22.520;2023-05-02T17:43:28;13.00;99.90
20400;DHT22;10359;53.596;22.520;2023-05-02T17:46:19;12.90;99.90
20400;DHT22;10359;53.596;22.520;2023-05-02T17:49:11;12.80;99.90
20400;DHT22;10359;53.596;22.520;2023-05-02T17:52:02;12.60;99.90
20400;DHT22;10359;53.596;22.520;2023-05-02T17:54:52;12.50;99.90
20400;DHT22;10359;53.596;22.520;2023-05-02T17:57:44;12.40;99.90
20400;DHT22;10359;53.596;22.520;2023-05-02T18:00:35;12.30;99.90
20400;DHT22;10359;53.596;22.520;2023-05-02T18:03:26;12.30;99.90
20400;DHT22;10359;53.596;22.520;2023-05-02T18:06:20;12.20;99.90
20400;DHT22;10359;53.596;22.520;2023-05-02T18:09:10;12.00;99.90
20400;DHT22;10359;53.596;22.520;2023-05-02T18:12:03;12.00;99.90
20400;DHT22;10359;53.596;22.520;2023-05-02T18:14:53;11.90;99.90
20400;DHT22;10359;53.596;22.520;2023-05-02T18:17:44;11.90;99.90
20400;DHT22;10359;53.596;22.520;2023-05-02T18:20:40;11.80;99.90
20400;DHT22;10359;53.596;22.520;2023-05-02T18:23:32;11.80;99.90
20400;DHT22;10359;53.596;22.520;2023-05-02T18:26:23;11.70;99.90
20400;DHT22;10359;53.596;22.520;2023-05-02T18:29:14;11.60;99.90
20400;DHT22;10359;53.596;22.520;2023-05-02T18:32:07;11.50;99.90
20400;DHT22;10359;53.596;22.520;2023-05-02T18:35:01;11.50;99.90
20400;DHT22;10359;53.596;22.520;2023-05-02T18:37:52;11.40;99.90
20400;DHT22;10359;53.596;22.520;2023-05-02T18:40:46;11.30;99.90
20400;DHT22;10359;53.596;22.520;2023-05-02T18:43:36;11.30;99.90
20400;DHT22;10359;53.596;22.520;2023-05-02T18:46:27;11.20;99.90
20400;DHT22;10359;53.596;22.520;2023-05-02T18:49:18;11.10;99.90
20400;DHT22;10359;53.596;22.520;2023-05-02T18:52:10;11.10;99.90
20400;DHT22;10359;53.596;22.520;2023-05-02T18:55:01;11.00;99.90
20400;DHT22;10359;53.596;22.520;2023-05-02T18:57:57;11.10;99.90
20400;DHT22;10359;53.596;22.520;2023-05-02T19:00:51;11.10;99.90
20400;DHT22;10359;53.596;22.520;2023-05-02T19:03:45;11.10;99.90
20400;DHT22;10359;53.596;22.520;2023-05-02T19:06:37;11.10;99.90
20400;DHT22;10359;53.596;22.520;2023-05-02T19:09:29;11.00;99.90
20400;DHT22;10359;53.596;22.520;2023-05-02T19:12:21;11.00;99.90
20400;DHT22;10359;53.596;22.520;2023-05-02T19:15:13;10.90;99.90
20400;DHT22;10359;53.596;22.520;2023-05-02T19:18:04;10.90;99.90
20400;DHT22;10359;53.596;22.520;2023-05-02T19:20:55;10.80;99.90
20400;DHT22;10359;53.596;22.520;2023-05-02T19:23:47;10.80;99.90
20400;DHT22;10359;53.596;22.520;2023-05-02T19:26:40;10.70;99.90
20400;DHT22;10359;53.596;22.520;2023-05-02T19:29:38;10.70;99.90
20400;DHT22;10359;53.596;22.520;2023-05-02T19:32:32;10.80;99.90
20400;DHT22;10359;53.596;22.520;2023-05-02T19:35:25;10.70;99.90
20400;DHT22;10359;53.596;22.520;2023-05-02T19:38:23;10.70;99.90
20400;DHT22;10359;53.596;22.520;2023-05-02T19:41:14;10.60;99.90
20400;DHT22;10359;53.596;22.520;2023-05-02T19:44:05;10.60;99.90
20400;DHT22;10359;53.596;22.520;2023-05-02T19:46:58;10.70;99.90
20400;DHT22;10359;53.596;22.520;2023-05-02T19:49:51;10.70;99.90